Terminal Aerodrome Forecast
Issued by NWS Sterling, VA

Current Version | Previous Version | Text Only | Print | Product List | Glossary On
Versions: 1 2 3 4 5 6 7 8 9 10 11 12 13 14 15 16 17 18 19 20 21 22 23 24
000
FTUS41 KLWX 261400 AAA
TAFDCA
TAF AMD
KDCA 261454Z 2615/2712 02010G18KT 3SM RASN BKN008 OVC015
     FM261800 36011G18KT 2SM -RASN OVC008
     FM262000 33012G20KT 3SM -RASN OVC008
     FM262300 32011KT P6SM OVC008
     FM270400 30006KT P6SM BKN045
     FM271000 00000KT P6SM OVC045=

USA.gov is the U.S. government's official web portal to all federal, state and local government web resources and services.